Time;durP1;ratioP1;P1;durP2;ratioP2;P2;SDS_P1;SDS_P2;PMS_P1;PMS_P2;Temp;Humidity;BMP_temperature;BMP_pressure;BME280_temperature;BME280_humidity;BME280_pressure;Samples;Min_cycle;Max_cycle;Signal;HPM_P1;HPM_P2
2022/02/18 00:00:54;;;;;;;39.90;24.67;;;;;;;3.90;100.00;99081.41;1760798;81;21044;-85
2022/02/18 00:03:23;;;;;;;35.45;24.05;;;;;;;3.90;100.00;99074.13;1763908;80;21037;-85
2022/02/18 00:05:52;;;;;;;37.67;23.40;;;;;;;3.89;100.00;99067.33;1786372;80;21116;-84
2022/02/18 00:08:19;;;;;;;37.05;23.05;;;;;;;3.88;100.00;99067.00;1739540;81;21070;-84
2022/02/18 00:10:47;;;;;;;32.05;23.50;;;;;;;3.87;100.00;99059.72;1764027;80;21641;-84
2022/02/18 00:13:16;;;;;;;39.40;25.35;;;;;;;3.87;100.00;99058.91;1785233;80;21046;-84
2022/02/18 00:15:44;;;;;;;38.55;25.90;;;;;;;3.87;100.00;99064.88;1747816;81;21492;-89
2022/02/18 00:18:12;;;;;;;37.90;24.77;;;;;;;3.89;100.00;99065.59;1749716;82;21093;-89
2022/02/18 00:20:40;;;;;;;41.15;25.62;;;;;;;3.90;100.00;99062.54;1749394;81;21093;-84
2022/02/18 00:23:10;;;;;;;46.02;25.95;;;;;;;3.90;100.00;99063.83;1749645;81;21089;-84
2022/02/18 00:25:42;;;;;;;40.25;25.97;;;;;;;3.94;100.00;99067.84;1728483;82;21112;-84
2022/02/18 00:28:06;;;;;;;41.02;26.12;;;;;;;3.96;100.00;99059.55;1749331;81;21151;-86
2022/02/18 00:30:39;;;;;;;40.48;26.15;;;;;;;3.99;100.00;99052.05;1728022;82;20950;-87
2022/02/18 00:33:03;;;;;;;39.53;25.80;;;;;;;3.98;100.00;99040.91;1749252;81;21558;-86
2022/02/18 00:35:32;;;;;;;36.90;25.65;;;;;;;4.00;100.00;99053.22;1728397;82;21527;-86
2022/02/18 00:37:59;;;;;;;37.88;26.70;;;;;;;4.01;100.00;99049.72;1722792;82;21073;-87
2022/02/18 00:40:26;;;;;;;41.30;27.13;;;;;;;4.02;100.00;99043.63;1749803;82;21127;-85
2022/02/18 00:42:55;;;;;;;43.38;28.15;;;;;;;4.02;100.00;99051.36;1749606;82;21412;-85
2022/02/18 00:45:23;;;;;;;45.30;29.15;;;;;;;4.05;100.00;99054.98;1749840;82;21391;-85
2022/02/18 00:47:51;;;;;;;39.60;27.32;;;;;;;4.08;100.00;99052.20;1749995;81;21166;-84
2022/02/18 00:50:20;;;;;;;42.50;28.02;;;;;;;4.13;100.00;99050.58;1749675;81;21034;-84
2022/02/18 00:52:48;;;;;;;45.80;29.40;;;;;;;4.17;100.00;99053.75;1751077;81;21980;-86
2022/02/18 00:55:15;;;;;;;42.90;28.87;;;;;;;4.19;100.00;99068.63;1751350;81;21078;-85
2022/02/18 00:57:42;;;;;;;41.58;28.15;;;;;;;4.23;100.00;99077.77;1751483;81;21687;-84
2022/02/18 01:00:12;;;;;;;42.62;28.92;;;;;;;4.25;100.00;99075.42;1725973;81;21074;-84
2022/02/18 01:02:39;;;;;;;43.90;29.25;;;;;;;4.29;100.00;99072.63;1751580;81;21038;-88
2022/02/18 01:05:07;;;;;;;42.95;28.27;;;;;;;4.32;100.00;99068.55;1751380;81;21161;-83
2022/02/18 01:07:35;;;;;;;45.45;30.17;;;;;;;4.36;100.00;99073.83;1751592;81;21083;-85
2022/02/18 01:10:04;;;;;;;45.05;29.80;;;;;;;4.37;100.00;99072.41;1751403;81;21051;-86
2022/02/18 01:12:35;;;;;;;44.63;30.27;;;;;;;4.38;100.00;99069.38;1747622;81;21514;-83
2022/02/18 01:15:02;;;;;;;44.60;29.00;;;;;;;4.38;100.00;99058.59;1750982;81;21146;-84
2022/02/18 01:17:29;;;;;;;43.90;28.87;;;;;;;4.39;100.00;99055.09;1751355;81;21144;-84
2022/02/18 01:19:56;;;;;;;42.45;29.37;;;;;;;4.41;100.00;99054.52;1751133;81;21031;-84
2022/02/18 01:22:23;;;;;;;40.25;28.95;;;;;;;4.41;100.00;99057.09;1725790;81;20976;-86
2022/02/18 01:24:51;;;;;;;42.80;28.57;;;;;;;4.43;100.00;99063.41;1725663;81;21047;-86
2022/02/18 01:27:18;;;;;;;41.37;28.57;;;;;;;4.44;100.00;99065.54;1751411;81;21114;-84
2022/02/18 01:29:45;;;;;;;44.18;30.20;;;;;;;4.46;100.00;99064.48;1751127;81;21144;-85
2022/02/18 01:32:13;;;;;;;45.92;29.27;;;;;;;4.48;100.00;99062.63;1751246;81;20996;-85
2022/02/18 01:34:42;;;;;;;38.98;28.10;;;;;;;4.51;100.00;99071.87;1751021;81;21114;-85
2022/02/18 01:37:10;;;;;;;41.23;28.40;;;;;;;4.54;100.00;99067.76;1751126;81;21153;-85
2022/02/18 01:39:38;;;;;;;45.03;29.27;;;;;;;4.55;100.00;99056.52;1725493;81;21063;-85
2022/02/18 01:42:05;;;;;;;39.65;28.12;;;;;;;4.52;100.00;99053.70;1751465;81;21129;-87
2022/02/18 01:44:37;;;;;;;42.88;30.50;;;;;;;4.51;100.00;99057.70;1725861;81;21134;-85
2022/02/18 01:47:06;;;;;;;43.13;29.20;;;;;;;4.49;100.00;99064.72;1751536;81;21647;-90
2022/02/18 01:49:34;;;;;;;47.00;30.15;;;;;;;4.47;100.00;99063.55;1725635;81;21079;-84
2022/02/18 01:52:01;;;;;;;47.70;31.10;;;;;;;4.47;100.00;99056.27;1751389;81;21471;-85
2022/02/18 01:54:29;;;;;;;43.98;30.15;;;;;;;4.47;100.00;99047.25;1751274;81;21160;-85
2022/02/18 01:56:56;;;;;;;44.95;30.30;;;;;;;4.46;100.00;99038.70;1751496;81;21086;-85
2022/02/18 01:59:23;;;;;;;43.25;30.77;;;;;;;4.46;100.00;99041.28;1750868;81;21055;-85
2022/02/18 02:01:50;;;;;;;44.50;30.70;;;;;;;4.47;100.00;99042.09;1751769;81;21517;-85
2022/02/18 02:04:17;;;;;;;47.05;31.15;;;;;;;4.49;100.00;99042.80;1751339;81;21011;-85
2022/02/18 02:06:44;;;;;;;47.85;31.35;;;;;;;4.49;100.00;99049.25;1726188;81;21123;-85
2022/02/18 02:09:14;;;;;;;49.35;31.07;;;;;;;4.50;100.00;99038.01;1725946;81;21051;-84
2022/02/18 02:11:41;;;;;;;45.63;31.70;;;;;;;4.53;100.00;99044.20;1751242;81;21134;-85
2022/02/18 02:14:09;;;;;;;45.20;30.85;;;;;;;4.54;100.00;99044.56;1725651;81;21012;-84
2022/02/18 02:16:38;;;;;;;45.00;30.32;;;;;;;4.56;100.00;99043.53;1751315;81;21610;-85
2022/02/18 02:19:05;;;;;;;54.48;31.95;;;;;;;4.58;100.00;99045.98;1725674;81;21058;-85
2022/02/18 02:21:35;;;;;;;43.50;30.68;;;;;;;4.60;100.00;99052.30;1751198;81;21059;-85
2022/02/18 02:24:02;;;;;;;47.33;30.37;;;;;;;4.61;100.00;99053.47;1725542;81;21059;-87
2022/02/18 02:26:31;;;;;;;47.73;30.90;;;;;;;4.63;100.00;99056.77;1750106;81;21035;-85
2022/02/18 02:28:59;;;;;;;40.52;27.82;;;;;;;4.65;100.00;99061.34;1725918;81;21102;-84
2022/02/18 02:31:27;;;;;;;45.10;30.15;;;;;;;4.67;100.00;99058.19;1751696;81;21126;-84
2022/02/18 02:33:55;;;;;;;47.33;30.88;;;;;;;4.69;100.00;99064.03;1751391;81;20952;-86
2022/02/18 02:36:24;;;;;;;44.10;30.62;;;;;;;4.70;100.00;99066.97;1725935;81;21532;-85
2022/02/18 02:38:51;;;;;;;44.38;30.70;;;;;;;4.72;100.00;99078.48;1751728;81;21074;-86
2022/02/18 02:41:19;;;;;;;48.17;30.57;;;;;;;4.74;100.00;99083.03;1751512;81;21031;-85
2022/02/18 02:43:46;;;;;;;43.80;29.00;;;;;;;4.77;100.00;99087.16;1726055;81;21144;-88
2022/02/18 02:46:13;;;;;;;44.73;31.05;;;;;;;4.79;100.00;99081.39;1725844;81;21040;-91
2022/02/18 02:48:41;;;;;;;45.83;31.25;;;;;;;4.79;100.00;99090.42;1751105;81;21059;-91
2022/02/18 02:51:18;;;;;;;49.15;32.33;;;;;;;4.79;100.00;99093.00;1720367;81;21509;-85
2022/02/18 02:53:47;;;;;;;53.25;32.55;;;;;;;4.80;100.00;99101.09;1736759;81;21048;-85
2022/02/18 02:56:14;;;;;;;50.90;31.50;;;;;;;4.80;100.00;99098.52;1713755;82;21079;-85
2022/02/18 02:58:44;;;;;;;47.55;30.88;;;;;;;4.79;100.00;99104.16;1690005;82;21005;-87
2022/02/18 03:01:11;;;;;;;41.68;29.65;;;;;;;4.78;100.00;99111.53;1710464;82;21535;-85
2022/02/18 03:03:43;;;;;;;45.23;30.08;;;;;;;4.79;100.00;99116.20;1735742;81;21503;-88
2022/02/18 03:06:10;;;;;;;48.20;31.37;;;;;;;4.79;100.00;99107.19;1736973;81;21079;-87
2022/02/18 03:08:38;;;;;;;47.67;31.35;;;;;;;4.79;100.00;99105.89;1737015;81;21223;-90
2022/02/18 03:11:16;;;;;;;44.48;30.82;;;;;;;4.80;100.00;99104.95;1733281;81;21055;-83
2022/02/18 03:14:01;;;;;;;48.98;30.57;;;;;;;4.83;100.00;99106.03;1733694;81;21067;-86
2022/02/18 03:16:28;;;;;;;48.05;29.87;;;;;;;4.83;100.00;99093.95;1701882;82;21052;-84
2022/02/18 03:18:56;;;;;;;46.75;30.37;;;;;;;4.82;100.00;99088.91;1713995;82;21067;-84
2022/02/18 03:21:23;;;;;;;44.05;31.20;;;;;;;4.80;100.00;99092.06;1736847;81;21209;-86
2022/02/18 03:23:50;;;;;;;48.20;30.92;;;;;;;4.74;100.00;99092.89;1737152;81;21518;-85
2022/02/18 03:26:23;;;;;;;42.98;29.98;;;;;;;4.70;100.00;99089.36;1713435;81;21027;-84
2022/02/18 03:28:51;;;;;;;42.73;29.05;;;;;;;4.65;100.00;99093.58;1733601;81;21068;-86
2022/02/18 03:31:26;;;;;;;43.40;28.35;;;;;;;4.60;100.00;99098.27;1733408;81;21056;-85
2022/02/18 03:33:53;;;;;;;44.45;29.55;;;;;;;4.56;100.00;99080.08;1737056;81;21775;-85
2022/02/18 03:36:21;;;;;;;47.60;29.25;;;;;;;4.50;100.00;99074.09;1736851;81;21087;-85
2022/02/18 03:38:48;;;;;;;41.88;28.05;;;;;;;4.44;100.00;99066.34;1689799;82;21067;-85
2022/02/18 03:41:15;;;;;;;45.03;28.75;;;;;;;4.37;100.00;99065.97;1736735;81;21036;-85
2022/02/18 03:43:42;;;;;;;45.05;28.80;;;;;;;4.33;100.00;99068.88;1713336;81;21098;-85
2022/02/18 03:46:18;;;;;;;43.70;27.50;;;;;;;4.28;100.00;99067.96;1733186;81;21167;-85
2022/02/18 03:48:48;;;;;;;48.40;29.73;;;;;;;4.17;100.00;99073.07;1713845;82;21035;-86
2022/02/18 03:51:16;;;;;;;40.78;28.02;;;;;;;4.17;100.00;99073.07;1736714;81;21419;-86
2022/02/18 03:53:45;;;;;;;44.33;28.50;;;;;;;4.14;100.00;99074.57;1750670;81;21750;-85
2022/02/18 03:56:17;;;;;;;46.18;29.70;;;;;;;4.13;100.00;99079.39;1688974;84;21096;-85
2022/02/18 03:58:46;;;;;;;48.02;31.23;;;;;;;4.12;100.00;99081.13;1728623;81;22200;-85
2022/02/18 04:01:13;;;;;;;39.85;28.25;;;;;;;4.14;100.00;99088.73;1734908;80;20997;-86
2022/02/18 04:03:42;;;;;;;43.92;29.60;;;;;;;4.14;100.00;99102.91;1740464;81;21053;-86
2022/02/18 04:06:11;;;;;;;43.55;28.05;;;;;;;4.14;100.00;99114.50;1756989;81;21096;-86
2022/02/18 04:08:42;;;;;;;41.18;28.25;;;;;;;4.15;100.00;99129.03;1763989;81;21028;-85
2022/02/18 04:11:09;;;;;;;46.25;28.83;;;;;;;4.17;100.00;99129.75;1787028;79;21447;-84
2022/02/18 04:13:37;;;;;;;40.45;28.95;;;;;;;4.19;100.00;99135.14;1788033;80;21068;-85
2022/02/18 04:16:04;;;;;;;41.83;28.52;;;;;;;4.21;100.00;99144.05;1761973;79;21590;-85
2022/02/18 04:18:32;;;;;;;48.38;29.37;;;;;;;4.21;100.00;99146.17;1788174;79;21021;-85
2022/02/18 04:21:01;;;;;;;38.92;27.67;;;;;;;4.23;100.00;99146.89;1788563;79;21003;-85
2022/02/18 04:23:48;;;;;;;42.35;27.30;;;;;;;4.27;100.00;99144.91;1784528;79;21982;-86
2022/02/18 04:26:18;;;;;;;40.95;27.62;;;;;;;4.29;100.00;99157.20;1774326;80;21088;-86
2022/02/18 04:28:45;;;;;;;46.57;30.03;;;;;;;4.31;100.00;99156.63;1761170;80;21511;-87
2022/02/18 04:31:12;;;;;;;43.95;29.98;;;;;;;4.34;100.00;99161.57;1756050;80;21101;-86
2022/02/18 04:33:41;;;;;;;41.37;28.42;;;;;;;4.35;100.00;99159.35;1782041;79;21616;-89
2022/02/18 04:36:08;;;;;;;43.98;28.42;;;;;;;4.39;100.00;99163.81;1746888;81;21319;-89
2022/02/18 04:38:35;;;;;;;47.33;29.82;;;;;;;4.39;100.00;99163.34;1782395;80;21052;-88
2022/02/18 04:41:03;;;;;;;47.30;30.30;;;;;;;4.41;100.00;99156.32;1788004;79;21652;-87
2022/02/18 04:43:30;;;;;;;59.70;31.87;;;;;;;4.41;100.00;99160.19;1760802;81;21001;-81
2022/02/18 04:45:57;;;;;;;75.08;32.10;;;;;;;4.49;100.00;99156.23;1762247;79;21078;-86
2022/02/18 04:48:24;;;;;;;89.40;33.25;;;;;;;4.91;100.00;99160.45;1788635;79;21814;-87
2022/02/18 04:50:51;;;;;;;50.30;32.08;;;;;;;5.32;100.00;99166.83;1788735;79;21553;-85
2022/02/18 04:53:18;;;;;;;56.92;32.40;;;;;;;5.73;100.00;99166.33;1728000;82;21084;-85
2022/02/18 04:55:45;;;;;;;48.73;32.25;;;;;;;5.91;100.00;99175.20;1751690;81;21033;-85
2022/02/18 04:58:12;;;;;;;61.80;32.48;;;;;;;6.08;100.00;99182.12;1739095;82;21049;-86
2022/02/18 05:00:39;;;;;;;59.50;33.08;;;;;;;6.18;100.00;99177.87;1738929;81;21575;-85
2022/02/18 05:03:06;;;;;;;52.73;30.50;;;;;;;6.28;100.00;99178.79;1738727;81;21081;-85
2022/02/18 05:05:34;;;;;;;42.30;28.92;;;;;;;6.38;100.00;99175.44;1739043;82;21115;-86
2022/02/18 05:08:01;;;;;;;41.55;27.87;;;;;;;6.31;100.00;99179.81;1739171;82;21825;-87
2022/02/18 05:10:29;;;;;;;46.15;27.73;;;;;;;6.10;100.00;99188.00;1739271;81;21069;-85
2022/02/18 05:12:56;;;;;;;35.43;26.55;;;;;;;5.82;100.00;99194.00;1739881;81;21185;-85
2022/02/18 05:15:23;;;;;;;44.35;28.32;;;;;;;5.60;100.00;99195.67;1739284;81;21538;-88
2022/02/18 05:17:50;;;;;;;44.55;27.07;;;;;;;5.47;100.00;99197.56;1739506;81;21607;-87
2022/02/18 05:20:18;;;;;;;44.83;28.77;;;;;;;5.39;100.00;99205.07;1739231;81;21076;-87
2022/02/18 05:22:46;;;;;;;44.65;27.75;;;;;;;5.30;100.00;99201.41;1739161;82;21056;-86
2022/02/18 05:25:14;;;;;;;46.05;28.75;;;;;;;5.23;100.00;99201.07;1739071;81;21135;-84
2022/02/18 05:27:41;;;;;;;42.35;28.23;;;;;;;5.20;100.00;99198.71;1739502;81;21010;-86
2022/02/18 05:30:10;;;;;;;43.83;29.02;;;;;;;5.16;100.00;99207.16;1739399;81;21025;-86
2022/02/18 05:32:37;;;;;;;44.63;29.48;;;;;;;5.13;100.00;99205.27;1739569;82;21014;-86
2022/02/18 05:35:05;;;;;;;44.85;30.75;;;;;;;5.08;100.00;99206.09;1739170;82;21107;-86
2022/02/18 05:37:34;;;;;;;45.95;30.97;;;;;;;5.07;100.00;99208.31;1739303;81;21479;-87
2022/02/18 05:40:01;;;;;;;56.10;33.50;;;;;;;5.03;100.00;99210.30;1739147;82;21053;-87
2022/02/18 05:42:28;;;;;;;60.63;33.50;;;;;;;5.00;100.00;99215.69;1739103;81;21014;-87
2022/02/18 05:44:56;;;;;;;54.27;32.03;;;;;;;4.97;100.00;99225.77;1739221;81;21073;-87
2022/02/18 05:47:25;;;;;;;50.05;33.42;;;;;;;4.98;100.00;99236.45;1739112;82;46820;-87
2022/02/18 05:49:52;;;;;;;54.42;32.00;;;;;;;5.02;100.00;99236.56;1723385;82;21573;-86
2022/02/18 05:52:19;;;;;;;55.28;33.92;;;;;;;5.04;100.00;99240.34;1741116;81;21053;-87
2022/02/18 05:54:47;;;;;;;51.35;32.90;;;;;;;5.07;100.00;99237.98;1769197;81;21036;-85
2022/02/18 05:57:14;;;;;;;56.48;34.40;;;;;;;5.08;100.00;99241.73;1741219;81;21581;-86
2022/02/18 05:59:41;;;;;;;47.53;34.48;;;;;;;5.12;100.00;99247.49;1769381;81;21048;-86
2022/02/18 06:02:08;;;;;;;56.48;33.40;;;;;;;5.13;100.00;99247.37;1769575;81;21080;-86
2022/02/18 06:04:37;;;;;;;56.40;35.38;;;;;;;5.17;100.00;99252.67;1768503;81;21025;-86
2022/02/18 06:07:04;;;;;;;56.05;37.33;;;;;;;5.22;100.00;99252.33;1769708;81;22062;-86
2022/02/18 06:09:32;;;;;;;53.90;36.90;;;;;;;5.27;100.00;99252.80;1741015;81;21017;-88
2022/02/18 06:11:59;;;;;;;60.48;39.48;;;;;;;5.34;100.00;99250.59;1768213;81;21054;-86
2022/02/18 06:14:28;;;;;;;58.65;38.55;;;;;;;5.42;100.00;99246.97;1767770;81;20998;-90
2022/02/18 06:16:55;;;;;;;60.17;40.05;;;;;;;5.45;100.00;99255.75;1769357;81;21009;-90
2022/02/18 06:19:22;;;;;;;61.02;41.37;;;;;;;5.46;100.00;99253.53;1769149;81;21076;-91
2022/02/18 06:21:49;;;;;;;54.20;38.13;;;;;;;5.50;100.00;99254.11;1768623;81;21080;-90
2022/02/18 06:24:18;;;;;;;69.45;41.48;;;;;;;5.56;100.00;99249.80;1768331;81;21506;-88
2022/02/18 06:26:47;;;;;;;55.73;38.90;;;;;;;5.63;100.00;99241.94;1741020;81;21878;-85
2022/02/18 06:29:13;;;;;;;62.03;40.85;;;;;;;5.67;100.00;99256.24;1769221;81;21066;-86
2022/02/18 06:31:41;;;;;;;60.12;42.83;;;;;;;5.67;100.00;99257.53;1740757;81;21032;-86
2022/02/18 06:34:08;;;;;;;68.22;42.93;;;;;;;5.67;100.00;99258.02;1769004;81;21589;-86
2022/02/18 06:36:35;;;;;;;65.50;43.55;;;;;;;5.69;100.00;99247.91;1768749;81;21085;-86
2022/02/18 06:39:03;;;;;;;60.85;41.75;;;;;;;5.69;100.00;99262.13;1768051;81;21144;-88
2022/02/18 06:41:32;;;;;;;57.53;41.37;;;;;;;5.63;100.00;99265.18;1769029;81;21088;-86
2022/02/18 06:44:02;;;;;;;60.35;40.92;;;;;;;5.65;100.00;99263.28;1758745;81;21056;-86
2022/02/18 06:46:29;;;;;;;60.15;42.13;;;;;;;5.71;100.00;99271.52;1760672;80;21541;-87
2022/02/18 06:48:56;;;;;;;69.00;41.77;;;;;;;5.74;100.00;99276.43;1766816;81;21143;-86
2022/02/18 06:51:24;;;;;;;62.58;40.45;;;;;;;5.77;100.00;99286.55;1751300;80;21936;-84
2022/02/18 06:53:51;;;;;;;57.58;39.03;;;;;;;5.82;100.00;99289.12;1738436;81;20958;-85
2022/02/18 06:56:17;;;;;;;49.38;36.20;;;;;;;5.85;100.00;99294.05;1722179;81;21102;-85
2022/02/18 06:58:45;;;;;;;51.95;38.25;;;;;;;5.88;100.00;99302.05;1739023;81;21140;-86
2022/02/18 07:01:13;;;;;;;54.55;39.35;;;;;;;5.85;100.00;99297.92;1738772;81;21133;-91
2022/02/18 07:03:40;;;;;;;59.67;40.52;;;;;;;5.84;100.00;99300.17;1739120;81;21113;-84
2022/02/18 07:06:08;;;;;;;46.83;34.20;;;;;;;5.82;100.00;99297.33;1738704;81;21527;-86
2022/02/18 07:08:35;;;;;;;56.53;38.65;;;;;;;5.85;100.00;99292.75;1738425;82;21064;-87
2022/02/18 07:11:02;;;;;;;53.68;36.20;;;;;;;5.85;100.00;99304.86;1738537;81;21055;-85
2022/02/18 07:13:30;;;;;;;46.20;32.58;;;;;;;5.82;100.00;99307.22;1738698;81;21510;-85
2022/02/18 07:15:59;;;;;;;48.50;35.23;;;;;;;5.84;100.00;99316.97;1738654;81;21516;-85
2022/02/18 07:18:26;;;;;;;45.25;31.97;;;;;;;5.80;100.00;99310.38;1711270;82;21593;-85
2022/02/18 07:20:54;;;;;;;46.33;33.00;;;;;;;5.78;100.00;99311.44;1738927;81;21015;-85
2022/02/18 07:23:22;;;;;;;44.48;31.25;;;;;;;5.74;100.00;99298.39;1738710;81;20977;-85
2022/02/18 07:25:49;;;;;;;42.98;30.85;;;;;;;5.68;100.00;99301.80;1738797;81;21059;-86
2022/02/18 07:28:17;;;;;;;48.17;32.40;;;;;;;5.61;100.00;99304.98;1739026;81;21141;-85
2022/02/18 07:30:45;;;;;;;43.50;30.80;;;;;;;5.60;100.00;99314.47;1738932;81;22012;-87
2022/02/18 07:33:12;;;;;;;37.15;29.20;;;;;;;5.59;100.00;99325.73;1738899;81;21080;-84
2022/02/18 07:35:39;;;;;;;37.40;27.22;;;;;;;5.58;100.00;99331.83;1720938;82;21015;-85
2022/02/18 07:38:07;;;;;;;39.55;27.70;;;;;;;5.57;100.00;99329.37;1738745;82;21092;-87
2022/02/18 07:40:33;;;;;;;37.15;24.80;;;;;;;5.61;100.00;99334.67;1720555;81;21631;-85
2022/02/18 07:43:00;;;;;;;29.20;22.22;;;;;;;5.58;100.00;99343.45;1711373;82;21101;-83
2022/02/18 07:45:27;;;;;;;34.33;23.75;;;;;;;5.55;100.00;99340.27;1738867;81;21079;-84
2022/02/18 07:47:57;;;;;;;28.30;18.82;;;;;;;5.56;100.00;99339.34;1739062;81;21104;-93
2022/02/18 07:50:31;;;;;;;29.77;19.40;;;;;;;5.58;100.00;99327.95;1743651;79;21107;-93
2022/02/18 07:52:58;;;;;;;26.70;18.35;;;;;;;5.64;100.00;99338.30;1760143;80;21799;-92
2022/02/18 07:55:26;;;;;;;26.40;17.77;;;;;;;5.71;100.00;99343.84;1736681;81;21052;-93
2022/02/18 07:57:55;;;;;;;23.85;16.62;;;;;;;5.71;100.00;99347.71;1787968;79;21000;-92
2022/02/18 08:00:22;;;;;;;23.87;16.30;;;;;;;5.72;100.00;99350.66;1741966;81;21057;-90
2022/02/18 08:02:50;;;;;;;23.52;16.90;;;;;;;5.65;100.00;99345.92;1775840;79;21842;-89
2022/02/18 08:05:19;;;;;;;22.58;16.75;;;;;;;5.56;100.00;99344.50;1769236;80;21139;-91
2022/02/18 08:07:48;;;;;;;23.75;16.70;;;;;;;5.50;100.00;99343.20;1736882;81;21124;-92
2022/02/18 08:10:16;;;;;;;22.50;15.63;;;;;;;5.44;100.00;99345.79;1743386;81;21013;-90
2022/02/18 08:12:46;;;;;;;20.55;15.03;;;;;;;5.41;100.00;99351.65;1762030;81;21523;-90
2022/02/18 08:15:13;;;;;;;18.10;14.17;;;;;;;5.43;100.00;99353.63;1766437;80;21104;-93
2022/02/18 08:17:41;;;;;;;21.48;14.93;;;;;;;5.45;100.00;99350.47;1787263;79;21916;-93
2022/02/18 08:20:11;;;;;;;20.95;15.20;;;;;;;5.48;100.00;99360.59;1732885;81;21089;-91
2022/02/18 08:22:39;;;;;;;20.25;14.68;;;;;;;5.52;100.00;99360.70;1748406;80;21516;-89
2022/02/18 08:25:09;;;;;;;19.15;13.75;;;;;;;5.60;100.00;99361.44;1758461;81;21088;-88
2022/02/18 08:27:37;;;;;;;19.60;14.15;;;;;;;5.64;100.00;99371.42;1759194;81;21629;-90
2022/02/18 08:30:06;;;;;;;17.12;12.85;;;;;;;5.68;100.00;99374.12;1732859;81;21476;-89
2022/02/18 08:32:35;;;;;;;21.10;13.30;;;;;;;5.71;100.00;99369.67;1759045;81;20954;-90
2022/02/18 08:35:03;;;;;;;16.40;11.48;;;;;;;5.69;100.00;99380.09;1758685;81;21049;-89
2022/02/18 08:37:31;;;;;;;13.48;11.78;;;;;;;5.67;100.00;99376.83;1758920;81;22111;-89
2022/02/18 08:39:58;;;;;;;17.23;13.32;;;;;;;5.65;100.00;99378.69;1741823;81;21079;-89
2022/02/18 08:42:25;;;;;;;17.65;13.00;;;;;;;5.63;100.00;99374.09;1722818;81;21046;-89
2022/02/18 08:44:52;;;;;;;16.27;12.45;;;;;;;5.60;100.00;99376.93;1759631;81;21036;-90
2022/02/18 08:47:27;;;;;;;15.68;12.23;;;;;;;5.59;100.00;99379.16;1736978;81;21039;-90
2022/02/18 08:50:04;;;;;;;17.05;13.03;;;;;;;5.58;100.00;99385.25;1713169;82;21090;-90
2022/02/18 08:52:35;;;;;;;17.12;12.40;;;;;;;5.59;100.00;99382.55;1745991;80;21102;-89
2022/02/18 08:55:11;;;;;;;16.30;12.00;;;;;;;5.64;100.00;99397.25;1736553;81;21066;-90
2022/02/18 08:57:39;;;;;;;16.30;12.37;;;;;;;5.67;100.00;99395.71;1754697;80;21527;-91
2022/02/18 09:00:18;;;;;;;19.00;12.55;;;;;;;5.68;100.00;99392.68;1757158;81;21051;-91
2022/02/18 09:02:46;;;;;;;20.08;11.75;;;;;;;5.71;100.00;99389.04;1758464;80;21032;-90
2022/02/18 09:05:13;;;;;;;16.05;11.28;;;;;;;5.72;100.00;99381.17;1757700;80;21080;-90
2022/02/18 09:07:41;;;;;;;15.70;10.58;;;;;;;5.76;100.00;99383.89;1744489;80;21074;-90
2022/02/18 09:10:10;;;;;;;14.78;10.78;;;;;;;5.82;100.00;99377.42;1757155;80;21088;-90
2022/02/18 09:12:39;;;;;;;13.93;11.68;;;;;;;5.87;100.00;99384.37;1757667;80;21051;-92
2022/02/18 09:15:10;;;;;;;13.93;10.78;;;;;;;5.92;100.00;99377.58;1757690;80;21029;-91
2022/02/18 09:17:42;;;;;;;12.88;10.18;;;;;;;5.94;100.00;99380.84;1754028;80;21020;-90
2022/02/18 09:20:10;;;;;;;13.15;10.53;;;;;;;5.94;100.00;99381.68;1759248;80;21154;-90
2022/02/18 09:22:37;;;;;;;13.98;9.38;;;;;;;5.92;100.00;99390.01;1745647;81;21006;-89
2022/02/18 09:25:05;;;;;;;11.83;9.58;;;;;;;5.96;100.00;99395.31;1748988;80;21073;-89
2022/02/18 09:27:34;;;;;;;12.50;9.80;;;;;;;6.05;100.00;99400.77;1749905;80;21041;-92
2022/02/18 09:30:02;;;;;;;11.97;10.10;;;;;;;6.15;100.00;99404.27;1766578;80;21009;-91
2022/02/18 09:32:30;;;;;;;12.05;9.80;;;;;;;6.28;100.00;99393.38;1754228;81;21141;-89
2022/02/18 09:34:58;;;;;;;12.33;10.18;;;;;;;6.38;100.00;99387.47;1737381;81;21526;-91
2022/02/18 09:37:27;;;;;;;11.53;8.30;;;;;;;6.48;100.00;99378.06;1735808;80;21132;-90
2022/02/18 09:39:54;;;;;;;10.40;8.23;;;;;;;6.50;100.00;99380.52;1746470;80;21047;-91
2022/02/18 09:42:21;;;;;;;10.20;8.15;;;;;;;6.44;100.00;99390.89;1723961;82;21122;-91
2022/02/18 09:44:50;;;;;;;9.45;8.50;;;;;;;6.33;100.00;99396.87;1759268;80;21204;-92
2022/02/18 09:47:17;;;;;;;10.88;8.63;;;;;;;6.21;100.00;99410.26;1750508;80;21037;-93
2022/02/18 09:49:45;;;;;;;9.68;8.20;;;;;;;6.14;100.00;99409.92;1747072;80;21056;-92
2022/02/18 09:52:14;;;;;;;10.70;8.40;;;;;;;6.11;100.00;99406.27;1755201;80;21096;-89
2022/02/18 09:54:43;;;;;;;10.78;8.33;;;;;;;6.06;100.00;99418.73;1759766;80;21109;-90
2022/02/18 09:57:10;;;;;;;10.50;7.65;;;;;;;6.02;100.00;99422.95;1780266;80;21924;-89
2022/02/18 09:59:38;;;;;;;11.63;9.38;;;;;;;5.96;100.00;99427.62;1751818;80;21036;-91
2022/02/18 10:02:05;;;;;;;10.80;8.95;;;;;;;5.94;100.00;99429.48;1746234;81;20966;-92
2022/02/18 10:04:33;;;;;;;10.70;8.38;;;;;;;5.94;100.00;99433.81;1781632;80;21602;-90
2022/02/18 10:07:02;;;;;;;9.70;8.70;;;;;;;5.95;100.00;99435.46;1736925;81;21030;-89
2022/02/18 10:09:43;;;;;;;9.03;7.90;;;;;;;5.96;100.00;99437.95;1778527;80;20999;-90
2022/02/18 10:12:13;;;;;;;11.28;8.63;;;;;;;5.95;100.00;99435.46;1772863;80;20962;-90
2022/02/18 10:15:03;;;;;;;11.00;8.83;;;;;;;5.89;100.00;99436.73;1787386;80;21035;-90
2022/02/18 10:17:45;;;;;;;9.50;8.50;;;;;;;5.85;100.00;99443.08;1746021;81;21053;-90
2022/02/18 10:20:24;;;;;;;11.28;9.40;;;;;;;5.78;100.00;99436.25;1773719;80;21820;-90
2022/02/18 10:23:02;;;;;;;10.38;8.95;;;;;;;5.75;100.00;99442.95;1753703;81;20947;-90
2022/02/18 10:25:32;;;;;;;11.25;8.93;;;;;;;5.74;100.00;99449.50;1737226;80;21021;-90
2022/02/18 10:27:59;;;;;;;9.93;8.20;;;;;;;5.68;100.00;99449.02;1768447;80;20889;-89
2022/02/18 10:30:28;;;;;;;8.60;7.80;;;;;;;5.64;100.00;99452.78;1762448;80;20977;-90
2022/02/18 10:32:56;;;;;;;8.63;7.83;;;;;;;5.64;100.00;99463.56;1747577;81;21005;-90
2022/02/18 10:35:35;;;;;;;8.08;7.20;;;;;;;5.66;100.00;99474.13;1787376;80;21126;-90
2022/02/18 10:38:04;;;;;;;8.75;7.92;;;;;;;5.71;100.00;99472.98;1768969;80;20986;-92
2022/02/18 10:40:31;;;;;;;12.15;8.60;;;;;;;5.72;100.00;99481.09;1763350;80;20997;-90
2022/02/18 10:43:11;;;;;;;12.28;9.50;;;;;;;5.67;100.00;99483.53;1739817;80;20986;-89
2022/02/18 10:46:01;;;;;;;9.55;8.65;;;;;;;5.66;100.00;99490.92;1745066;80;21029;-90
2022/02/18 10:48:36;;;;;;;9.78;8.80;;;;;;;5.60;100.00;99499.12;1768804;80;21520;-88
2022/02/18 10:51:19;;;;;;;11.38;8.78;;;;;;;5.53;100.00;99503.08;1772857;80;20966;-87
2022/02/18 10:53:48;;;;;;;12.53;9.20;;;;;;;5.47;100.00;99501.75;1733892;81;20997;-89
2022/02/18 10:56:21;;;;;;;9.60;8.68;;;;;;;5.47;100.00;99515.95;1746441;81;21006;-89
2022/02/18 10:58:51;;;;;;;11.12;8.65;;;;;;;5.49;100.00;99516.68;1733403;80;21034;-88
2022/02/18 11:01:22;;;;;;;9.00;8.15;;;;;;;5.44;100.00;99520.52;1736863;80;21088;-89
2022/02/18 11:04:03;;;;;;;9.53;8.53;;;;;;;5.41;100.00;99520.75;1769521;80;20976;-88
2022/02/18 11:06:37;;;;;;;10.13;8.50;;;;;;;5.38;100.00;99523.06;1780202;80;21023;-87
2022/02/18 11:09:08;;;;;;;9.35;8.08;;;;;;;5.35;100.00;99534.91;1757764;80;21082;-89
2022/02/18 11:11:42;;;;;;;9.73;8.83;;;;;;;5.30;100.00;99537.81;1720393;81;21639;-90
2022/02/18 11:14:16;;;;;;;10.20;8.08;;;;;;;5.25;100.00;99546.33;1766660;80;21511;-87
2022/02/18 11:16:52;;;;;;;9.03;8.13;;;;;;;5.23;100.00;99546.09;1730253;81;20969;-89
2022/02/18 11:19:17;;;;;;;8.60;7.70;;;;;;;5.20;100.00;99545.39;1705108;82;21009;-90
2022/02/18 11:21:44;;;;;;;8.80;7.20;;;;;;;5.16;100.00;99553.45;1719398;83;21037;-89
2022/02/18 11:24:16;;;;;;;9.10;8.23;;;;;;;5.08;100.00;99554.45;1733670;81;21498;-89
2022/02/18 11:26:46;;;;;;;;;;;;;;;5.02;100.00;99561.66;1758785;81;21837;-88